Terminal Aerodrome Forecast
Issued by NWS

Current Version | Previous Version | Graphics & Text | Print | Product List | Glossary On
Versions: 1 2 3 4 5 6 7 8 9 10 11 12 13 14 15 16 17 18 19 20 21 22
000
FTUS41 KPBZ 150520
TAFHLG
TAF
KHLG 150520Z 1506/1606 12003KT P6SM SKC
     FM151600 15010KT P6SM BKN200
     FM152000 19010KT P6SM VCSH BKN100
     FM152300 19008KT 5SM -SHRA OVC035
     FM160200 21010KT P6SM VCSH OVC015
     FM160400 23010KT P6SM OVC008=

USA.gov is the U.S. government's official web portal to all federal, state and local government web resources and services.